Main page
METAR-TAF:

METAR-TAF

Airports :

Storm Lake Municipal Airport

Storm Lake, Iowa, United States

latitude: 42-36N, longitude: 095-14W, elevation: 1489 ft

Current weather observation

The report was made 20 minutes ago, at 19:35 UTC
Wind 17 mph from the South with gusts up to 28 mph
Temperature 70°F
Humidity 33%
Pressure 29.77 in. Hg
Visibility: 10 miles
Clear sky

METAR: KSLB 011935Z AUTO 19015G24KT 10SM CLR 21/04 A2977 RMK AO2

Time: 14:55 (19:55 UTC)


TAF: missing

Weather observations and forecasts of more than 4000 airports (METAR and TAF reports).

The available stations are represented by yellow and red dots on the map.

Hover mouse over dot to see the name of the station.

Then click to see weather observations and forecasts.

To change the map : click on the green buttons with a black cross to zoom in, on the green button with a dash to zoom out, or on the green arrows for adjacent maps.


METAR-TAF: